Time;durP1;ratioP1;P1;durP2;ratioP2;P2;SDS_P1;SDS_P2;PMS_P1;PMS_P2;Temp;Humidity;BMP_temperature;BMP_pressure;BME280_temperature;BME280_humidity;BME280_pressure;Samples;Min_cycle;Max_cycle;Signal;HPM_P1;HPM_P2
2023/10/26 07:23:18;;;;;;;16.67;14.07;;;;;;;-145.79;100.00;76705.41;5289872;28;20401;-68
2023/10/26 07:25:49;;;;;;;14.80;13.23;;;;;;;-145.79;100.00;76707.53;5287057;28;20055;-66
2023/10/26 07:28:20;;;;;;;15.27;13.68;;;;;;;-145.79;100.00;76694.81;5277220;28;20392;-66
2023/10/26 07:30:52;;;;;;;15.90;14.35;;;;;;;-145.79;100.00;76686.34;5275957;28;20079;-66
2023/10/26 07:33:24;;;;;;;14.85;13.35;;;;;;;-145.79;100.00;76690.56;5275578;28;20038;-66
2023/10/26 07:35:56;;;;;;;16.30;14.60;;;;;;;-145.79;100.00;76686.34;5290200;28;20021;-65
2023/10/26 07:38:27;;;;;;;15.70;13.48;;;;;;;-145.79;100.00;76677.84;5289844;28;20025;-66
2023/10/26 07:41:00;;;;;;;16.35;13.30;;;;;;;-145.79;100.00;76682.09;5281783;28;20491;-65
2023/10/26 07:43:31;;;;;;;33.78;16.92;;;;;;;-145.79;100.00;76688.44;5281741;28;20033;-65
2023/10/26 07:46:03;;;;;;;15.73;14.13;;;;;;;-145.79;100.00;76673.63;5291552;28;20467;-65
2023/10/26 07:48:35;;;;;;;15.40;13.85;;;;;;;-145.79;100.00;76677.84;5287768;28;20093;-66
2023/10/26 07:51:07;;;;;;;15.48;13.82;;;;;;;-145.79;100.00;76671.50;5282110;28;20021;-67
2023/10/26 07:53:38;;;;;;;16.70;15.05;;;;;;;-145.79;100.00;76679.97;5286190;28;20020;-66
2023/10/26 07:56:09;;;;;;;16.85;13.63;;;;;;;-145.79;100.00;76677.84;5288095;28;20021;-67
2023/10/26 07:58:40;;;;;;;22.50;16.27;;;;;;;-145.79;100.00;76673.63;5282776;28;20029;-66
2023/10/26 08:01:12;;;;;;;15.65;14.07;;;;;;;-145.79;100.00;76671.50;5276962;28;20054;-66
2023/10/26 08:03:44;;;;;;;16.90;14.90;;;;;;;-145.79;100.00;76682.09;5291519;28;20477;-66
2023/10/26 08:06:16;;;;;;;16.67;14.98;;;;;;;-145.79;100.00;76665.16;5287874;28;20025;-66
2023/10/26 08:08:47;;;;;;;17.33;15.55;;;;;;;-145.79;100.00;76677.84;5276942;28;20029;-66
2023/10/26 08:11:19;;;;;;;17.90;14.60;;;;;;;-145.79;100.00;76675.75;5286478;28;20108;-66
2023/10/26 08:13:50;;;;;;;15.88;14.25;;;;;;;-145.79;100.00;76682.09;5289121;28;20016;-66
2023/10/26 08:16:22;;;;;;;17.90;16.10;;;;;;;-145.79;100.00;76679.97;5288594;28;20036;-66
2023/10/26 08:18:53;;;;;;;17.33;14.32;;;;;;;-145.79;100.00;76682.09;5272798;28;20027;-66
2023/10/26 08:21:24;;;;;;;18.27;15.95;;;;;;;-145.79;100.00;76667.25;5283413;28;20045;-66
2023/10/26 08:23:55;;;;;;;17.13;15.40;;;;;;;-145.79;100.00;76665.16;5283128;28;20035;-66
2023/10/26 08:26:27;;;;;;;18.30;15.82;;;;;;;-145.79;100.00;76656.66;5280412;28;20104;-66
2023/10/26 08:28:58;;;;;;;18.65;16.63;;;;;;;-145.79;100.00;76663.03;5287730;28;20029;-67
2023/10/26 08:31:34;;;;;;;19.02;16.60;;;;;;;-145.79;100.00;76652.44;5288561;28;20332;-67
2023/10/26 08:34:06;;;;;;;18.45;16.52;;;;;;;-145.79;100.00;76665.16;5272851;28;20029;-66
2023/10/26 08:36:38;;;;;;;18.52;16.60;;;;;;;-145.79;100.00;76652.44;5277390;28;20016;-66
2023/10/26 08:39:09;;;;;;;109.93;98.80;;;;;;;-145.79;100.00;76648.19;5272538;28;20096;-67
2023/10/26 08:41:50;;;;;;;81.93;73.88;;;;;;;-145.79;100.00;76648.19;5270989;28;20170;-66
2023/10/26 08:44:21;;;;;;;27.00;23.15;;;;;;;-145.79;100.00;76646.06;5272384;28;20032;-67
2023/10/26 08:46:58;;;;;;;21.75;18.98;;;;;;;-145.79;100.00;76643.94;5274113;28;20021;-65
2023/10/26 08:49:31;;;;;;;20.50;17.33;;;;;;;-145.79;100.00;76643.94;5276449;28;20100;-67
2023/10/26 08:52:03;;;;;;;21.58;18.55;;;;;;;-145.79;100.00;76648.19;5271937;28;20024;-66
2023/10/26 08:54:35;;;;;;;21.48;18.73;;;;;;;-145.79;100.00;76648.19;5275496;28;20040;-66
2023/10/26 08:57:07;;;;;;;20.80;18.52;;;;;;;-145.79;100.00;76635.47;5271889;28;20445;-67
2023/10/26 08:59:39;;;;;;;22.02;19.08;;;;;;;-145.79;100.00;76629.13;5268489;28;20024;-66
2023/10/26 09:02:10;;;;;;;23.40;18.75;;;;;;;-145.79;100.00;76614.28;5272923;28;20094;-66
2023/10/26 09:05:02;;;;;;;24.90;20.40;;;;;;;-145.79;100.00;76605.81;5272545;28;20024;-67
2023/10/26 09:07:34;;;;;;;21.25;18.73;;;;;;;-145.79;100.00;76605.81;5264836;28;20055;-67
2023/10/26 09:10:06;;;;;;;22.83;19.42;;;;;;;-145.79;100.00;76612.16;5272431;28;20400;-67
2023/10/26 09:12:38;;;;;;;25.02;20.77;;;;;;;-145.79;100.00;76597.31;5269453;28;20028;-67
2023/10/26 09:15:10;;;;;;;21.10;17.67;;;;;;;-145.79;100.00;76607.91;5273299;28;20029;-67
2023/10/26 09:17:42;;;;;;;22.48;18.42;;;;;;;-145.79;100.00;76588.84;5271888;28;20017;-67
2023/10/26 09:20:20;;;;;;;23.02;19.65;;;;;;;-145.79;100.00;76597.31;5272703;28;20029;-66
2023/10/26 09:22:52;;;;;;;21.70;18.92;;;;;;;-145.79;100.00;76582.50;5274848;28;20123;-66
2023/10/26 09:25:23;;;;;;;22.65;20.10;;;;;;;-145.79;100.00;76578.25;5273340;28;20539;-67
2023/10/26 09:28:02;;;;;;;22.33;18.25;;;;;;;-145.79;100.00;76576.13;5265310;28;20032;-67
2023/10/26 09:30:33;;;;;;;21.90;19.55;;;;;;;-145.79;100.00;76576.13;5273222;28;20419;-67
2023/10/26 09:33:21;;;;;;;23.88;19.50;;;;;;;-145.79;100.00;76563.41;5265731;28;20089;-66
2023/10/26 09:35:53;;;;;;;24.08;19.88;;;;;;;-145.79;100.00;76567.66;5262359;28;20112;-67
2023/10/26 09:38:38;;;;;;;21.50;18.95;;;;;;;-145.79;100.00;76563.41;5271880;28;20028;-66
2023/10/26 09:41:15;;;;;;;22.30;19.52;;;;;;;-145.79;100.00;76563.41;5264724;28;20412;-66
2023/10/26 09:43:47;;;;;;;21.98;18.20;;;;;;;-145.79;100.00;76571.91;5271103;28;20059;-66
2023/10/26 09:46:22;;;;;;;23.45;18.88;;;;;;;-145.79;100.00;76561.28;5274293;28;20048;-66
2023/10/26 09:48:54;;;;;;;21.25;18.95;;;;;;;-145.79;100.00;76567.66;5264688;28;20361;-66
2023/10/26 09:51:25;;;;;;;22.58;19.27;;;;;;;-145.79;100.00;76563.41;5274500;28;20085;-66
2023/10/26 09:53:57;;;;;;;21.80;18.73;;;;;;;-145.79;100.00;76557.06;5273256;28;20479;-66
2023/10/26 09:56:30;;;;;;;25.77;20.35;;;;;;;-145.79;100.00;76540.09;5271147;28;20024;-67
2023/10/26 09:59:03;;;;;;;20.20;18.10;;;;;;;-145.79;100.00;76538.00;5255587;28;20040;-67
2023/10/26 10:01:45;;;;;;;20.77;17.70;;;;;;;-145.79;100.00;76538.00;5269206;28;20025;-67
2023/10/26 10:04:35;;;;;;;20.50;17.60;;;;;;;-145.79;100.00;76531.63;5273405;28;20467;-66
2023/10/26 10:07:07;;;;;;;18.67;16.15;;;;;;;-145.79;100.00;76535.88;5265441;28;20515;-66
2023/10/26 10:10:04;;;;;;;19.98;17.88;;;;;;;-145.79;100.00;76525.28;5270690;28;20066;-66
2023/10/26 10:12:37;;;;;;;21.33;18.10;;;;;;;-145.79;100.00;76525.28;5270432;28;20578;-67
2023/10/26 10:15:11;;;;;;;21.23;17.48;;;;;;;-145.79;100.00;76529.50;5271915;28;20146;-67
2023/10/26 10:17:45;;;;;;;19.08;17.08;;;;;;;-145.79;100.00;76525.28;5264130;28;20067;-67
2023/10/26 10:20:17;;;;;;;20.48;18.13;;;;;;;-145.79;100.00;76533.75;5273581;28;20062;-66
2023/10/26 10:22:53;;;;;;;19.38;17.42;;;;;;;-145.79;100.00;76523.16;5272890;28;20044;-66
2023/10/26 10:26:02;;;;;;;19.00;17.00;;;;;;;-145.79;100.00;76510.44;5271855;28;20020;-68
2023/10/26 10:28:40;;;;;;;17.90;15.90;;;;;;;-145.79;100.00;76512.56;5260810;28;20445;-67
2023/10/26 10:31:21;;;;;;;20.25;17.42;;;;;;;-145.79;100.00;76491.38;5259587;28;20029;-65
2023/10/26 10:34:02;;;;;;;19.38;17.38;;;;;;;-145.79;100.00;76491.38;5258006;28;20024;-68
2023/10/26 10:37:09;;;;;;;17.35;15.63;;;;;;;-145.79;100.00;76489.25;5267686;28;20033;-67
2023/10/26 10:40:15;;;;;;;17.85;16.08;;;;;;;-145.79;100.00;76491.38;5262878;28;20025;-66
2023/10/26 10:42:49;;;;;;;17.23;15.43;;;;;;;-145.79;100.00;76497.72;5267208;28;20029;-66
2023/10/26 10:45:20;;;;;;;17.42;15.68;;;;;;;-145.79;100.00;76499.84;5274177;28;20360;-66
2023/10/26 10:47:51;;;;;;;18.55;16.60;;;;;;;-145.79;100.00;76491.38;5270457;28;20035;-67
2023/10/26 10:50:25;;;;;;;16.77;14.98;;;;;;;-145.79;100.00;76489.25;5268613;28;20017;-67
2023/10/26 10:52:56;;;;;;;17.58;15.70;;;;;;;-145.79;100.00;76482.88;5264132;28;20104;-67
2023/10/26 10:55:29;;;;;;;17.10;15.13;;;;;;;-145.79;100.00;76470.19;5273367;28;20095;-66
2023/10/26 10:58:02;;;;;;;17.50;15.68;;;;;;;-145.79;100.00;76461.69;5258894;28;20086;-67
2023/10/26 11:00:36;;;;;;;17.88;14.88;;;;;;;-145.79;100.00;76461.69;5273257;28;20035;-66
2023/10/26 11:03:08;;;;;;;18.08;15.23;;;;;;;-145.79;100.00;76457.47;5270817;28;20043;-68
2023/10/26 11:05:40;;;;;;;15.40;13.90;;;;;;;-145.79;100.00;76461.69;5266585;28;20467;-67
2023/10/26 11:08:11;;;;;;;15.68;14.07;;;;;;;-145.79;100.00;76461.69;5269931;28;20025;-67
2023/10/26 11:10:51;;;;;;;15.68;14.07;;;;;;;-145.79;100.00;76457.47;5264690;28;20103;-67
2023/10/26 11:13:23;;;;;;;17.08;15.32;;;;;;;-145.79;100.00;76461.69;5269876;28;20064;-67
2023/10/26 11:15:54;;;;;;;16.40;14.73;;;;;;;-145.79;100.00;76457.47;5271610;28;20052;-66
2023/10/26 11:18:26;;;;;;;15.93;13.35;;;;;;;-145.79;100.00;76453.22;5270750;28;20074;-66
2023/10/26 11:20:59;;;;;;;15.02;13.52;;;;;;;-145.79;100.00;76444.75;5260824;28;20120;-67
2023/10/26 11:23:33;;;;;;;16.58;14.77;;;;;;;-145.79;100.00;76432.03;5271887;28;20481;-67
2023/10/26 11:26:14;;;;;;;15.48;13.32;;;;;;;-145.79;100.00;76417.19;5265863;28;20460;-67
2023/10/26 11:28:46;;;;;;;15.68;14.07;;;;;;;-145.79;100.00;76398.13;5265750;28;20032;-67
2023/10/26 11:31:39;;;;;;;15.20;13.70;;;;;;;-145.79;100.00;76376.94;5270537;28;20418;-67
2023/10/26 11:34:10;;;;;;;14.20;12.80;;;;;;;-145.79;100.00;76374.81;5262075;28;20096;-67
2023/10/26 11:36:44;;;;;;;13.40;12.10;;;;;;;-145.79;100.00;76368.47;5253024;28;20190;-67
2023/10/26 11:39:15;;;;;;;13.63;12.30;;;;;;;-145.79;100.00;76370.56;5273274;28;20119;-66
2023/10/26 11:41:54;;;;;;;15.32;13.20;;;;;;;-145.79;100.00;76366.34;5264981;28;20119;-66
2023/10/26 11:44:26;;;;;;;13.95;12.40;;;;;;;-145.79;100.00;76383.28;5272996;28;20086;-66
2023/10/26 11:46:59;;;;;;;14.85;13.40;;;;;;;-145.79;100.00;76385.41;5269788;28;20024;-66
2023/10/26 11:49:39;;;;;;;14.20;12.70;;;;;;;-145.79;100.00;76366.34;5272286;28;20028;-66
2023/10/26 11:52:10;;;;;;;12.98;11.68;;;;;;;-145.79;100.00;76351.50;5261074;28;20037;-67
2023/10/26 11:54:52;;;;;;;14.35;12.93;;;;;;;-145.79;100.00;76345.16;5266537;28;20021;-66
2023/10/26 11:57:23;;;;;;;13.52;12.20;;;;;;;-145.79;100.00;76351.50;5272839;28;20364;-67
2023/10/26 11:59:55;;;;;;;12.27;11.07;;;;;;;-145.79;100.00;76343.03;5268265;28;20021;-67
2023/10/26 12:02:28;;;;;;;12.77;11.48;;;;;;;-145.79;100.00;76338.78;5269192;28;20078;-67
2023/10/26 12:04:59;;;;;;;12.13;11.00;;;;;;;-145.79;100.00;76343.03;5262579;28;20496;-67
2023/10/26 12:07:34;;;;;;;12.45;11.25;;;;;;;-145.79;100.00;76330.31;5276633;28;20031;-67
2023/10/26 12:10:05;;;;;;;13.20;11.88;;;;;;;-145.79;100.00;76334.56;5274129;28;20090;-67
2023/10/26 12:12:37;;;;;;;14.23;11.90;;;;;;;-145.79;100.00;76330.31;5267045;28;20029;-68
2023/10/26 12:15:09;;;;;;;13.48;12.07;;;;;;;-145.79;100.00;76340.91;5274033;28;20444;-67
2023/10/26 12:17:41;;;;;;;15.15;13.73;;;;;;;-145.79;100.00;76338.78;5265775;28;20094;-68
2023/10/26 12:20:13;;;;;;;14.15;12.75;;;;;;;-145.79;100.00;76334.56;5273303;28;20029;-68
2023/10/26 12:22:45;;;;;;;14.10;12.68;;;;;;;-145.79;100.00;76315.47;5274501;28;20048;-69
2023/10/26 12:25:17;;;;;;;14.10;12.27;;;;;;;-145.79;100.00;76323.97;5271804;28;20029;-71
2023/10/26 12:27:48;;;;;;;14.50;13.00;;;;;;;-145.79;100.00;76319.72;5277511;28;20067;-68
2023/10/26 12:30:19;;;;;;;16.77;14.27;;;;;;;-145.79;100.00;76315.47;5276364;28;20036;-68
2023/10/26 12:32:51;;;;;;;16.65;14.95;;;;;;;-145.79;100.00;76313.34;5258334;28;20559;-67
2023/10/26 12:35:23;;;;;;;14.43;13.00;;;;;;;-145.79;100.00;76300.66;5270774;28;20059;-68
2023/10/26 12:37:55;;;;;;;15.43;13.93;;;;;;;-145.79;100.00;76304.88;5264467;28;20037;-68
2023/10/26 12:40:26;;;;;;;15.43;13.93;;;;;;;-145.79;100.00;76307.00;5266350;28;20028;-66
2023/10/26 12:42:57;;;;;;;15.68;14.07;;;;;;;-145.79;100.00;76298.53;5275122;28;20043;-68
2023/10/26 12:45:29;;;;;;;14.07;12.60;;;;;;;-145.79;100.00;76290.06;5269100;28;20032;-68
2023/10/26 12:48:01;;;;;;;15.45;13.77;;;;;;;-145.79;100.00;76300.66;5271898;28;20024;-67
2023/10/26 12:50:33;;;;;;;14.38;12.98;;;;;;;-145.79;100.00;76304.88;5260750;28;20036;-68
2023/10/26 12:53:04;;;;;;;15.18;13.65;;;;;;;-145.79;99.93;76317.59;5273189;28;20032;-67
2023/10/26 12:55:36;;;;;;;15.20;13.65;;;;;;;-145.79;100.00;76309.13;5269512;28;20433;-67
2023/10/26 12:58:07;;;;;;;16.20;14.57;;;;;;;-145.79;100.00;76307.00;5273912;28;20016;-68
2023/10/26 13:00:39;;;;;;;15.70;14.05;;;;;;;-145.79;100.00;76304.88;5263358;28;20361;-67
2023/10/26 13:03:10;;;;;;;15.80;14.13;;;;;;;-145.79;100.00;76294.28;5273224;28;20109;-67
2023/10/26 13:05:41;;;;;;;16.70;15.10;;;;;;;-145.79;100.00;76296.41;5272006;28;20028;-67
2023/10/26 13:08:13;;;;;;;16.10;14.48;;;;;;;-145.79;100.00;76281.56;5269696;28;20042;-68
2023/10/26 13:10:44;;;;;;;16.88;14.95;;;;;;;-145.79;100.00;76273.09;5275829;28;20063;-66
2023/10/26 13:13:15;;;;;;;16.90;15.20;;;;;;;-145.79;100.00;76275.22;5267499;28;20039;-67
2023/10/26 13:15:47;;;;;;;16.83;15.13;;;;;;;-145.79;100.00;76273.09;5276171;28;20021;-67
2023/10/26 13:18:18;;;;;;;16.20;13.45;;;;;;;-145.79;100.00;76262.50;5271993;28;20115;-68
2023/10/26 13:20:52;;;;;;;18.23;16.42;;;;;;;-145.79;100.00;76277.34;5270495;28;20013;-68
2023/10/26 13:23:23;;;;;;;18.50;16.40;;;;;;;-145.79;100.00;76290.06;5271351;28;20043;-67
2023/10/26 13:25:55;;;;;;;17.55;15.75;;;;;;;-145.79;100.00;76279.47;5265455;28;20099;-67
2023/10/26 13:28:26;;;;;;;19.65;17.67;;;;;;;-145.79;100.00;76249.78;5272772;28;20029;-68
2023/10/26 13:30:58;;;;;;;17.17;15.50;;;;;;;-145.79;100.00;76258.25;5272924;28;20025;-70
2023/10/26 13:33:29;;;;;;;18.23;16.42;;;;;;;-145.79;100.00;76254.03;5273060;28;20057;-66
2023/10/26 13:36:00;;;;;;;19.35;17.35;;;;;;;-145.79;100.00;76247.66;5274692;28;20024;-67
2023/10/26 13:38:32;;;;;;;18.30;16.40;;;;;;;-145.79;100.00;76251.91;5274861;28;20035;-67
2023/10/26 13:41:03;;;;;;;17.20;14.60;;;;;;;-145.79;100.00;76243.44;5273296;28;20025;-67
2023/10/26 13:43:34;;;;;;;19.63;17.63;;;;;;;-145.79;100.00;76249.78;5273871;28;20029;-67
2023/10/26 13:46:06;;;;;;;29.30;26.20;;;;;;;-145.79;100.00;76245.56;5269981;28;20102;-68
2023/10/26 13:48:37;;;;;;;18.88;16.83;;;;;;;-145.79;100.00;76243.44;5267867;28;20447;-67
2023/10/26 13:51:08;;;;;;;17.52;15.73;;;;;;;-145.79;100.00;76241.31;5275044;28;20029;-67
2023/10/26 13:53:39;;;;;;;18.75;16.77;;;;;;;-145.79;100.00;76234.97;5275893;28;20024;-67
2023/10/26 13:56:11;;;;;;;19.88;17.80;;;;;;;-145.79;100.00;76237.06;5268142;28;20021;-67
2023/10/26 13:58:42;;;;;;;19.00;17.00;;;;;;;-145.79;100.00;76232.84;5271047;28;20081;-67
2023/10/26 14:01:13;;;;;;;19.52;17.60;;;;;;;-145.79;100.00;76237.06;5270715;28;20017;-68
2023/10/26 14:03:45;;;;;;;21.33;17.33;;;;;;;-145.79;100.00;76228.59;5263232;28;20024;-67
2023/10/26 14:06:16;;;;;;;28.02;25.13;;;;;;;-145.79;100.00;76228.59;5267966;28;20483;-65
2023/10/26 14:08:47;;;;;;;28.45;25.40;;;;;;;-145.79;100.00;76228.59;5269401;28;20044;-67
2023/10/26 14:11:19;;;;;;;19.60;17.63;;;;;;;-145.79;100.00;76228.59;5272771;28;20021;-67
2023/10/26 14:13:50;;;;;;;20.42;18.33;;;;;;;-145.79;100.00;76220.13;5274618;28;20017;-67
2023/10/26 14:16:22;;;;;;;20.02;18.02;;;;;;;-145.79;100.00;76215.88;5265973;28;20528;-67
2023/10/26 14:18:54;;;;;;;20.88;18.52;;;;;;;-145.79;100.00;76211.66;5270145;28;20075;-68
2023/10/26 14:21:25;;;;;;;20.23;17.50;;;;;;;-145.79;100.00;76209.53;5275525;28;20045;-68
2023/10/26 14:23:56;;;;;;;20.15;18.05;;;;;;;-145.79;100.00;76203.16;5270709;28;20032;-67
2023/10/26 14:26:27;;;;;;;22.77;20.52;;;;;;;-145.79;100.00;76203.16;5271796;28;20025;-68
2023/10/26 14:28:59;;;;;;;21.38;18.90;;;;;;;-145.79;100.00;76205.28;5274594;28;20025;-67
2023/10/26 14:31:30;;;;;;;21.95;19.75;;;;;;;-145.79;100.00;76205.28;5270387;28;20495;-68
2023/10/26 14:34:03;;;;;;;21.58;18.75;;;;;;;-145.79;100.00;76203.16;5266107;28;20055;-68
2023/10/26 14:36:34;;;;;;;21.25;19.15;;;;;;;-145.79;100.00;76196.81;5261413;28;20025;-68
2023/10/26 14:39:06;;;;;;;21.67;19.48;;;;;;;-145.79;100.00;76198.94;5269192;28;20047;-68
2023/10/26 14:41:37;;;;;;;21.08;18.88;;;;;;;-145.79;100.00;76196.81;5271852;28;20059;-69
2023/10/26 14:44:08;;;;;;;20.98;18.77;;;;;;;-145.79;100.00;76188.34;5270746;28;20031;-68
2023/10/26 14:46:40;;;;;;;21.70;19.40;;;;;;;-145.79;100.00;76181.97;5262887;28;20044;-69
2023/10/26 14:49:11;;;;;;;21.30;19.17;;;;;;;-145.79;100.00;76173.50;5265743;28;20025;-69
2023/10/26 14:51:44;;;;;;;21.88;19.63;;;;;;;-145.79;100.00;76181.97;5269978;28;20047;-69
2023/10/26 14:54:16;;;;;;;21.20;19.02;;;;;;;-145.79;100.00;76186.22;5269552;28;20025;-69
2023/10/26 14:56:47;;;;;;;21.80;19.42;;;;;;;-145.79;100.00;76175.63;5264968;28;20024;-69
2023/10/26 14:59:18;;;;;;;21.02;18.85;;;;;;;-145.79;100.00;76175.63;5268722;28;20025;-68
2023/10/26 15:01:49;;;;;;;22.33;20.13;;;;;;;-145.79;100.00;76171.38;5269939;28;20033;-67
2023/10/26 15:04:21;;;;;;;22.02;19.65;;;;;;;-145.79;100.00;76169.25;5273604;28;20119;-67
2023/10/26 15:06:53;;;;;;;23.27;20.85;;;;;;;-145.79;100.00;76173.50;5267845;28;20484;-68
2023/10/26 15:09:29;;;;;;;22.67;20.33;;;;;;;-145.79;100.00;76171.38;5269473;28;20017;-68
2023/10/26 15:12:00;;;;;;;22.90;20.67;;;;;;;-145.79;100.00;76171.38;5261800;28;20099;-68
2023/10/26 15:14:32;;;;;;;23.02;20.63;;;;;;;-145.79;100.00;76162.91;5273099;28;20100;-68
2023/10/26 15:17:03;;;;;;;22.58;20.35;;;;;;;-145.79;100.00;76158.66;5273848;28;20056;-67
2023/10/26 15:19:35;;;;;;;25.40;20.85;;;;;;;-145.79;100.00;76160.78;5269619;28;20132;-68
2023/10/26 15:22:06;;;;;;;21.85;19.70;;;;;;;-145.79;100.00;76160.78;5268595;28;20380;-69
2023/10/26 15:24:37;;;;;;;21.73;18.98;;;;;;;-145.79;100.00;76167.16;5262816;28;20048;-69
2023/10/26 15:27:11;;;;;;;22.23;19.65;;;;;;;-145.79;100.00;76165.03;5269797;28;20040;-68
2023/10/26 15:29:45;;;;;;;22.55;20.35;;;;;;;-145.79;100.00;76160.78;5271619;28;20509;-68
2023/10/26 15:32:17;;;;;;;23.30;20.98;;;;;;;-145.79;100.00;76154.44;5269642;28;20045;-69
2023/10/26 15:34:49;;;;;;;25.08;22.50;;;;;;;-145.79;100.00;76154.44;5268786;28;20104;-69
2023/10/26 15:37:22;;;;;;;23.52;21.10;;;;;;;-145.79;100.00;76145.97;5269954;28;20100;-69
2023/10/26 15:39:54;;;;;;;21.88;19.67;;;;;;;-145.79;100.00;76156.56;5272125;28;20021;-68
2023/10/26 15:42:25;;;;;;;20.02;18.02;;;;;;;-145.79;100.00;76150.19;5272796;28;20059;-69
2023/10/26 15:44:56;;;;;;;20.15;18.02;;;;;;;-145.79;100.00;76158.66;5273074;28;20087;-68
2023/10/26 15:47:27;;;;;;;21.75;16.83;;;;;;;-145.79;100.00;76177.75;5269360;28;20029;-68
2023/10/26 15:49:59;;;;;;;19.27;16.70;;;;;;;-145.79;100.00;76181.97;5276561;28;20487;-67
2023/10/26 15:52:30;;;;;;;18.35;15.77;;;;;;;-145.79;100.00;76188.34;5278044;28;20030;-67
2023/10/26 15:55:02;;;;;;;20.17;18.02;;;;;;;-145.79;100.00;76198.94;5264636;28;20029;-68
2023/10/26 15:57:33;;;;;;;18.65;16.40;;;;;;;-145.79;100.00;76198.94;5273567;28;20020;-68
2023/10/26 16:00:09;;;;;;;20.33;17.38;;;;;;;-145.79;100.00;76190.47;5274491;28;20024;-68
2023/10/26 16:02:44;;;;;;;20.90;17.83;;;;;;;-145.79;100.00;76198.94;5267089;28;20028;-68
2023/10/26 16:05:16;;;;;;;;;;;;;;;-145.79;100.00;76186.22;5277220;28;20035;-66
2023/10/26 16:07:47;;;;;;;19.75;17.77;;;;;;;-145.79;100.00;76205.28;5273673;28;19917;-67
2023/10/26 16:10:18;;;;;;;18.88;16.88;;;;;;;-145.79;100.00;76220.13;5275275;28;20444;-67
2023/10/26 16:12:55;;;;;;;19.90;17.90;;;;;;;-145.79;100.00;76220.13;5272774;28;20123;-66
2023/10/26 16:15:26;;;;;;;19.15;17.25;;;;;;;-145.79;100.00;76211.66;5265897;28;20488;-66
2023/10/26 16:17:58;;;;;;;21.20;18.90;;;;;;;-145.79;100.00;76215.88;5277375;28;20103;-66
2023/10/26 16:20:29;;;;;;;19.50;17.40;;;;;;;-145.79;100.00;76209.53;5272561;28;20032;-67
2023/10/26 16:23:00;;;;;;;22.52;18.98;;;;;;;-145.79;100.00;76213.75;5273009;28;20040;-67
2023/10/26 16:25:33;;;;;;;22.23;19.67;;;;;;;-145.79;100.00;76224.38;5275359;28;20487;-68
2023/10/26 16:28:05;;;;;;;19.88;17.80;;;;;;;-145.79;100.00;76218.00;5277056;28;20100;-67
2023/10/26 16:30:40;;;;;;;22.23;19.73;;;;;;;-145.79;100.00;76226.47;5272951;28;20483;-66
2023/10/26 16:33:12;;;;;;;;;;;;;;;-145.79;100.00;76207.41;5273333;28;20102;-67
2023/10/26 16:35:45;;;;;;;23.52;20.10;;;;;;;-145.79;100.00;76228.59;5276051;28;20391;-68
2023/10/26 16:38:16;;;;;;;21.60;19.15;;;;;;;-145.79;100.00;76224.38;5269974;28;20032;-67
2023/10/26 16:40:53;;;;;;;20.48;18.45;;;;;;;-145.79;100.00;76239.19;5275981;28;20464;-67
2023/10/26 16:43:25;;;;;;;23.05;19.83;;;;;;;-145.79;100.00;76226.47;5276555;28;20087;-67
2023/10/26 16:45:57;;;;;;;24.85;22.35;;;;;;;-145.79;100.00;76220.13;5271998;28;20112;-67
2023/10/26 16:48:28;;;;;;;20.15;17.88;;;;;;;-145.79;100.00;76228.59;5276360;28;20032;-66
2023/10/26 16:51:00;;;;;;;22.73;20.27;;;;;;;-145.79;100.00;76228.59;5273251;28;20028;-67
2023/10/26 16:53:32;;;;;;;21.35;19.08;;;;;;;-145.79;100.00;76226.47;5270331;28;20068;-67
